sensor_id;sensor_type;location;lat;lon;timestamp;P1;durP1;ratioP1;P2;durP2;ratioP2
52956;SDS011;38819;42.692;23.342;2023-02-01T00:01:44;5.68;;;5.03;;
52956;SDS011;38819;42.692;23.342;2023-02-01T00:04:10;6.63;;;5.47;;
52956;SDS011;38819;42.692;23.342;2023-02-01T00:06:36;5.95;;;5.20;;
52956;SDS011;38819;42.692;23.342;2023-02-01T00:09:01;5.72;;;5.03;;
52956;SDS011;38819;42.692;23.342;2023-02-01T00:11:27;6.88;;;5.93;;
52956;SDS011;38819;42.692;23.342;2023-02-01T00:13:53;7.85;;;5.32;;
52956;SDS011;38819;42.692;23.342;2023-02-01T00:16:19;10.10;;;4.82;;
52956;SDS011;38819;42.692;23.342;2023-02-01T00:18:47;8.30;;;4.65;;
52956;SDS011;38819;42.692;23.342;2023-02-01T00:21:15;5.18;;;4.68;;
52956;SDS011;38819;42.692;23.342;2023-02-01T00:23:42;6.28;;;4.90;;
52956;SDS011;38819;42.692;23.342;2023-02-01T00:26:15;5.88;;;4.53;;
52956;SDS011;38819;42.692;23.342;2023-02-01T00:28:43;6.63;;;4.60;;
52956;SDS011;38819;42.692;23.342;2023-02-01T00:31:10;8.52;;;4.95;;
52956;SDS011;38819;42.692;23.342;2023-02-01T00:33:35;8.80;;;4.35;;
52956;SDS011;38819;42.692;23.342;2023-02-01T00:36:06;7.97;;;5.47;;
52956;SDS011;38819;42.692;23.342;2023-02-01T00:38:33;5.20;;;4.70;;
52956;SDS011;38819;42.692;23.342;2023-02-01T00:41:05;6.22;;;4.60;;
52956;SDS011;38819;42.692;23.342;2023-02-01T00:43:41;4.50;;;4.20;;
52956;SDS011;38819;42.692;23.342;2023-02-01T00:46:06;4.97;;;4.47;;
52956;SDS011;38819;42.692;23.342;2023-02-01T00:48:32;5.22;;;4.57;;
52956;SDS011;38819;42.692;23.342;2023-02-01T00:51:01;5.65;;;4.18;;
52956;SDS011;38819;42.692;23.342;2023-02-01T00:53:28;3.80;;;3.50;;
52956;SDS011;38819;42.692;23.342;2023-02-01T00:55:54;4.63;;;4.22;;
52956;SDS011;38819;42.692;23.342;2023-02-01T00:58:19;5.35;;;4.15;;
52956;SDS011;38819;42.692;23.342;2023-02-01T01:00:44;9.02;;;4.40;;
52956;SDS011;38819;42.692;23.342;2023-02-01T01:03:11;5.38;;;4.55;;
52956;SDS011;38819;42.692;23.342;2023-02-01T01:05:46;5.45;;;4.28;;
52956;SDS011;38819;42.692;23.342;2023-02-01T01:08:13;7.65;;;4.63;;
52956;SDS011;38819;42.692;23.342;2023-02-01T01:10:40;7.32;;;4.78;;
52956;SDS011;38819;42.692;23.342;2023-02-01T01:13:07;7.20;;;4.33;;
52956;SDS011;38819;42.692;23.342;2023-02-01T01:15:39;7.93;;;3.80;;
52956;SDS011;38819;42.692;23.342;2023-02-01T01:18:05;4.22;;;3.50;;
52956;SDS011;38819;42.692;23.342;2023-02-01T01:20:31;3.67;;;3.38;;
52956;SDS011;38819;42.692;23.342;2023-02-01T01:22:58;5.00;;;3.20;;
52956;SDS011;38819;42.692;23.342;2023-02-01T01:25:23;5.03;;;3.47;;
52956;SDS011;38819;42.692;23.342;2023-02-01T01:27:49;6.00;;;3.55;;
52956;SDS011;38819;42.692;23.342;2023-02-01T01:30:14;5.28;;;3.80;;
52956;SDS011;38819;42.692;23.342;2023-02-01T01:32:40;4.00;;;3.70;;
52956;SDS011;38819;42.692;23.342;2023-02-01T01:35:06;3.83;;;3.42;;
52956;SDS011;38819;42.692;23.342;2023-02-01T01:37:31;4.63;;;3.72;;
52956;SDS011;38819;42.692;23.342;2023-02-01T01:39:57;4.20;;;3.75;;
52956;SDS011;38819;42.692;23.342;2023-02-01T01:42:22;5.40;;;4.00;;
52956;SDS011;38819;42.692;23.342;2023-02-01T01:47:29;5.68;;;3.30;;
52956;SDS011;38819;42.692;23.342;2023-02-01T01:50:02;4.38;;;2.60;;
52956;SDS011;38819;42.692;23.342;2023-02-01T01:52:29;5.05;;;3.70;;
52956;SDS011;38819;42.692;23.342;2023-02-01T01:54:54;4.13;;;3.40;;
52956;SDS011;38819;42.692;23.342;2023-02-01T01:57:28;3.95;;;3.65;;
52956;SDS011;38819;42.692;23.342;2023-02-01T02:00:05;3.60;;;3.30;;
52956;SDS011;38819;42.692;23.342;2023-02-01T02:02:34;6.90;;;2.97;;
52956;SDS011;38819;42.692;23.342;2023-02-01T02:05:01;3.90;;;3.38;;
52956;SDS011;38819;42.692;23.342;2023-02-01T02:07:29;4.72;;;3.60;;
52956;SDS011;38819;42.692;23.342;2023-02-01T02:09:57;3.65;;;3.35;;
52956;SDS011;38819;42.692;23.342;2023-02-01T02:12:23;9.98;;;3.53;;
52956;SDS011;38819;42.692;23.342;2023-02-01T02:14:48;5.35;;;3.45;;
52956;SDS011;38819;42.692;23.342;2023-02-01T02:26:09;3.65;;;3.17;;
52956;SDS011;38819;42.692;23.342;2023-02-01T02:34:24;8.02;;;3.65;;
52956;SDS011;38819;42.692;23.342;2023-02-01T02:37:32;4.32;;;3.50;;
52956;SDS011;38819;42.692;23.342;2023-02-01T02:46:00;4.47;;;3.42;;
52956;SDS011;38819;42.692;23.342;2023-02-01T02:51:41;4.38;;;3.97;;
52956;SDS011;38819;42.692;23.342;2023-02-01T02:54:33;5.05;;;3.30;;
52956;SDS011;38819;42.692;23.342;2023-02-01T03:00:12;6.28;;;3.28;;
52956;SDS011;38819;42.692;23.342;2023-02-01T03:02:59;6.90;;;3.53;;
52956;SDS011;38819;42.692;23.342;2023-02-01T03:05:45;6.40;;;3.22;;
52956;SDS011;38819;42.692;23.342;2023-02-01T03:08:16;4.45;;;2.60;;
52956;SDS011;38819;42.692;23.342;2023-02-01T03:11:04;4.72;;;3.30;;
52956;SDS011;38819;42.692;23.342;2023-02-01T03:13:44;5.78;;;3.83;;
52956;SDS011;38819;42.692;23.342;2023-02-01T03:16:24;13.63;;;4.80;;
52956;SDS011;38819;42.692;23.342;2023-02-01T03:19:06;6.70;;;4.03;;
52956;SDS011;38819;42.692;23.342;2023-02-01T03:21:35;3.92;;;3.45;;
52956;SDS011;38819;42.692;23.342;2023-02-01T03:24:05;4.90;;;3.47;;
52956;SDS011;38819;42.692;23.342;2023-02-01T03:26:37;6.55;;;3.53;;
52956;SDS011;38819;42.692;23.342;2023-02-01T03:29:14;8.95;;;3.53;;
52956;SDS011;38819;42.692;23.342;2023-02-01T03:31:42;7.85;;;3.75;;
52956;SDS011;38819;42.692;23.342;2023-02-01T03:34:08;4.82;;;3.63;;
52956;SDS011;38819;42.692;23.342;2023-02-01T03:36:48;4.55;;;3.75;;
52956;SDS011;38819;42.692;23.342;2023-02-01T03:42:34;5.78;;;3.70;;
52956;SDS011;38819;42.692;23.342;2023-02-01T03:45:08;8.07;;;2.95;;
52956;SDS011;38819;42.692;23.342;2023-02-01T03:47:43;5.50;;;3.05;;
52956;SDS011;38819;42.692;23.342;2023-02-01T03:50:15;3.50;;;2.90;;
52956;SDS011;38819;42.692;23.342;2023-02-01T03:52:54;5.43;;;3.15;;
52956;SDS011;38819;42.692;23.342;2023-02-01T03:55:28;5.60;;;3.05;;
52956;SDS011;38819;42.692;23.342;2023-02-01T03:57:57;5.35;;;3.20;;
52956;SDS011;38819;42.692;23.342;2023-02-01T04:00:28;5.32;;;3.20;;
52956;SDS011;38819;42.692;23.342;2023-02-01T04:02:53;6.60;;;3.35;;
52956;SDS011;38819;42.692;23.342;2023-02-01T04:05:19;5.22;;;3.05;;
52956;SDS011;38819;42.692;23.342;2023-02-01T04:07:45;5.85;;;2.47;;
52956;SDS011;38819;42.692;23.342;2023-02-01T04:10:10;7.13;;;2.95;;
52956;SDS011;38819;42.692;23.342;2023-02-01T04:12:36;6.18;;;3.78;;
52956;SDS011;38819;42.692;23.342;2023-02-01T04:15:02;5.22;;;3.47;;
52956;SDS011;38819;42.692;23.342;2023-02-01T04:17:28;5.82;;;3.40;;
52956;SDS011;38819;42.692;23.342;2023-02-01T04:19:54;8.00;;;3.83;;
52956;SDS011;38819;42.692;23.342;2023-02-01T04:22:19;8.27;;;3.45;;
52956;SDS011;38819;42.692;23.342;2023-02-01T04:24:45;5.40;;;3.60;;
52956;SDS011;38819;42.692;23.342;2023-02-01T04:27:10;5.75;;;3.72;;
52956;SDS011;38819;42.692;23.342;2023-02-01T04:29:35;12.35;;;3.33;;
52956;SDS011;38819;42.692;23.342;2023-02-01T04:32:01;9.90;;;4.28;;
52956;SDS011;38819;42.692;23.342;2023-02-01T04:34:26;9.27;;;4.95;;
52956;SDS011;38819;42.692;23.342;2023-02-01T04:36:52;5.78;;;4.07;;
52956;SDS011;38819;42.692;23.342;2023-02-01T04:39:17;10.32;;;5.35;;
52956;SDS011;38819;42.692;23.342;2023-02-01T04:41:43;10.85;;;4.13;;
52956;SDS011;38819;42.692;23.342;2023-02-01T04:44:18;7.30;;;4.40;;
52956;SDS011;38819;42.692;23.342;2023-02-01T04:46:44;8.23;;;4.47;;
52956;SDS011;38819;42.692;23.342;2023-02-01T04:49:11;6.85;;;4.57;;
52956;SDS011;38819;42.692;23.342;2023-02-01T04:51:37;18.70;;;4.53;;
52956;SDS011;38819;42.692;23.342;2023-02-01T04:54:03;9.30;;;4.20;;
52956;SDS011;38819;42.692;23.342;2023-02-01T04:56:29;6.10;;;4.15;;
52956;SDS011;38819;42.692;23.342;2023-02-01T04:58:54;6.95;;;5.18;;
52956;SDS011;38819;42.692;23.342;2023-02-01T05:01:20;7.93;;;4.50;;
52956;SDS011;38819;42.692;23.342;2023-02-01T05:03:46;7.47;;;4.20;;
52956;SDS011;38819;42.692;23.342;2023-02-01T05:06:12;7.25;;;4.68;;
52956;SDS011;38819;42.692;23.342;2023-02-01T05:08:37;9.25;;;4.50;;
52956;SDS011;38819;42.692;23.342;2023-02-01T05:11:03;9.90;;;5.25;;
52956;SDS011;38819;42.692;23.342;2023-02-01T05:13:28;12.60;;;6.35;;
52956;SDS011;38819;42.692;23.342;2023-02-01T05:16:13;8.85;;;4.35;;
52956;SDS011;38819;42.692;23.342;2023-02-01T05:18:39;5.30;;;3.70;;
52956;SDS011;38819;42.692;23.342;2023-02-01T05:21:04;5.35;;;4.18;;
52956;SDS011;38819;42.692;23.342;2023-02-01T05:23:30;10.75;;;4.05;;
52956;SDS011;38819;42.692;23.342;2023-02-01T05:25:59;5.70;;;3.78;;
52956;SDS011;38819;42.692;23.342;2023-02-01T05:28:26;5.00;;;4.10;;
52956;SDS011;38819;42.692;23.342;2023-02-01T05:30:52;7.85;;;4.50;;
52956;SDS011;38819;42.692;23.342;2023-02-01T05:33:17;9.18;;;4.00;;
52956;SDS011;38819;42.692;23.342;2023-02-01T05:35:43;8.00;;;4.68;;
52956;SDS011;38819;42.692;23.342;2023-02-01T05:38:08;12.55;;;4.60;;
52956;SDS011;38819;42.692;23.342;2023-02-01T05:40:34;9.52;;;4.72;;
52956;SDS011;38819;42.692;23.342;2023-02-01T05:42:59;10.88;;;5.10;;
52956;SDS011;38819;42.692;23.342;2023-02-01T05:45:25;14.95;;;4.97;;
52956;SDS011;38819;42.692;23.342;2023-02-01T05:47:50;6.90;;;4.55;;
52956;SDS011;38819;42.692;23.342;2023-02-01T05:50:16;6.40;;;4.47;;
52956;SDS011;38819;42.692;23.342;2023-02-01T05:52:42;8.60;;;4.22;;
52956;SDS011;38819;42.692;23.342;2023-02-01T05:55:07;8.65;;;4.90;;
52956;SDS011;38819;42.692;23.342;2023-02-01T05:57:33;10.43;;;4.90;;
52956;SDS011;38819;42.692;23.342;2023-02-01T05:59:58;6.78;;;4.53;;
52956;SDS011;38819;42.692;23.342;2023-02-01T06:02:24;8.75;;;4.75;;
52956;SDS011;38819;42.692;23.342;2023-02-01T06:04:49;8.15;;;4.25;;
52956;SDS011;38819;42.692;23.342;2023-02-01T06:07:15;7.15;;;3.97;;
52956;SDS011;38819;42.692;23.342;2023-02-01T06:09:42;9.05;;;4.15;;
52956;SDS011;38819;42.692;23.342;2023-02-01T06:12:07;11.82;;;4.47;;
52956;SDS011;38819;42.692;23.342;2023-02-01T06:14:33;11.18;;;3.95;;
52956;SDS011;38819;42.692;23.342;2023-02-01T06:16:58;10.93;;;3.95;;
52956;SDS011;38819;42.692;23.342;2023-02-01T06:19:24;11.52;;;4.00;;
52956;SDS011;38819;42.692;23.342;2023-02-01T06:21:49;8.57;;;3.63;;
52956;SDS011;38819;42.692;23.342;2023-02-01T06:24:15;9.00;;;3.80;;
52956;SDS011;38819;42.692;23.342;2023-02-01T06:26:41;8.95;;;4.57;;
52956;SDS011;38819;42.692;23.342;2023-02-01T06:29:06;6.22;;;4.15;;
52956;SDS011;38819;42.692;23.342;2023-02-01T06:31:34;8.52;;;4.35;;
52956;SDS011;38819;42.692;23.342;2023-02-01T06:34:00;7.07;;;3.88;;
52956;SDS011;38819;42.692;23.342;2023-02-01T06:36:25;10.85;;;4.45;;
52956;SDS011;38819;42.692;23.342;2023-02-01T06:38:51;7.00;;;4.15;;
52956;SDS011;38819;42.692;23.342;2023-02-01T06:41:16;11.55;;;4.47;;
52956;SDS011;38819;42.692;23.342;2023-02-01T06:43:42;9.75;;;4.20;;
52956;SDS011;38819;42.692;23.342;2023-02-01T06:46:09;9.32;;;4.25;;
52956;SDS011;38819;42.692;23.342;2023-02-01T06:48:37;7.10;;;3.83;;
52956;SDS011;38819;42.692;23.342;2023-02-01T06:51:02;10.18;;;3.88;;
52956;SDS011;38819;42.692;23.342;2023-02-01T06:53:28;9.32;;;4.45;;
52956;SDS011;38819;42.692;23.342;2023-02-01T06:55:54;12.55;;;4.43;;
52956;SDS011;38819;42.692;23.342;2023-02-01T06:58:21;9.18;;;4.60;;
52956;SDS011;38819;42.692;23.342;2023-02-01T07:00:47;9.77;;;3.67;;
52956;SDS011;38819;42.692;23.342;2023-02-01T07:03:13;16.42;;;4.55;;
52956;SDS011;38819;42.692;23.342;2023-02-01T07:05:39;7.40;;;3.50;;
52956;SDS011;38819;42.692;23.342;2023-02-01T07:08:04;6.28;;;3.50;;
52956;SDS011;38819;42.692;23.342;2023-02-01T07:10:29;7.82;;;3.25;;
52956;SDS011;38819;42.692;23.342;2023-02-01T07:12:58;12.82;;;3.78;;
52956;SDS011;38819;42.692;23.342;2023-02-01T07:15:24;5.53;;;4.00;;
52956;SDS011;38819;42.692;23.342;2023-02-01T07:17:49;14.82;;;4.40;;
52956;SDS011;38819;42.692;23.342;2023-02-01T07:20:15;8.95;;;4.22;;
52956;SDS011;38819;42.692;23.342;2023-02-01T07:22:41;8.70;;;3.72;;
52956;SDS011;38819;42.692;23.342;2023-02-01T07:25:06;8.38;;;3.67;;
52956;SDS011;38819;42.692;23.342;2023-02-01T07:27:36;7.47;;;3.63;;
52956;SDS011;38819;42.692;23.342;2023-02-01T07:30:02;22.30;;;4.47;;
52956;SDS011;38819;42.692;23.342;2023-02-01T07:32:29;6.75;;;3.53;;
52956;SDS011;38819;42.692;23.342;2023-02-01T07:34:55;7.85;;;3.80;;
52956;SDS011;38819;42.692;23.342;2023-02-01T07:37:21;6.93;;;3.60;;
52956;SDS011;38819;42.692;23.342;2023-02-01T07:39:46;10.68;;;4.38;;
52956;SDS011;38819;42.692;23.342;2023-02-01T07:42:12;7.75;;;5.10;;
52956;SDS011;38819;42.692;23.342;2023-02-01T07:44:37;7.32;;;3.95;;
52956;SDS011;38819;42.692;23.342;2023-02-01T07:47:03;8.13;;;3.85;;
52956;SDS011;38819;42.692;23.342;2023-02-01T07:49:28;9.23;;;4.18;;
52956;SDS011;38819;42.692;23.342;2023-02-01T07:51:54;9.20;;;4.20;;
52956;SDS011;38819;42.692;23.342;2023-02-01T07:54:19;9.25;;;4.18;;
52956;SDS011;38819;42.692;23.342;2023-02-01T07:56:44;8.55;;;4.35;;
52956;SDS011;38819;42.692;23.342;2023-02-01T07:59:10;8.65;;;4.50;;
52956;SDS011;38819;42.692;23.342;2023-02-01T08:01:36;12.02;;;4.43;;
52956;SDS011;38819;42.692;23.342;2023-02-01T08:04:02;5.05;;;3.25;;
52956;SDS011;38819;42.692;23.342;2023-02-01T08:06:30;6.68;;;3.45;;
52956;SDS011;38819;42.692;23.342;2023-02-01T08:08:57;7.15;;;3.65;;
52956;SDS011;38819;42.692;23.342;2023-02-01T08:11:23;3.85;;;3.35;;
52956;SDS011;38819;42.692;23.342;2023-02-01T08:13:49;9.07;;;3.43;;
52956;SDS011;38819;42.692;23.342;2023-02-01T08:16:16;13.23;;;4.78;;
52956;SDS011;38819;42.692;23.342;2023-02-01T08:18:44;9.35;;;3.92;;
52956;SDS011;38819;42.692;23.342;2023-02-01T08:23:37;4.60;;;3.75;;
52956;SDS011;38819;42.692;23.342;2023-02-01T08:26:07;6.05;;;3.08;;
52956;SDS011;38819;42.692;23.342;2023-02-01T08:28:47;7.22;;;4.13;;
52956;SDS011;38819;42.692;23.342;2023-02-01T08:31:15;9.50;;;4.05;;
52956;SDS011;38819;42.692;23.342;2023-02-01T08:33:42;9.77;;;4.28;;
52956;SDS011;38819;42.692;23.342;2023-02-01T08:36:09;11.63;;;3.17;;
52956;SDS011;38819;42.692;23.342;2023-02-01T08:38:36;9.13;;;3.72;;
52956;SDS011;38819;42.692;23.342;2023-02-01T08:41:09;10.35;;;3.92;;
52956;SDS011;38819;42.692;23.342;2023-02-01T08:43:40;5.80;;;3.70;;
52956;SDS011;38819;42.692;23.342;2023-02-01T08:46:07;10.30;;;3.93;;
52956;SDS011;38819;42.692;23.342;2023-02-01T08:48:33;4.82;;;3.42;;
52956;SDS011;38819;42.692;23.342;2023-02-01T08:51:04;5.45;;;3.90;;
52956;SDS011;38819;42.692;23.342;2023-02-01T08:53:30;7.07;;;3.85;;
52956;SDS011;38819;42.692;23.342;2023-02-01T08:55:56;6.15;;;3.83;;
52956;SDS011;38819;42.692;23.342;2023-02-01T08:58:22;15.57;;;3.67;;
52956;SDS011;38819;42.692;23.342;2023-02-01T09:00:48;9.05;;;4.15;;
52956;SDS011;38819;42.692;23.342;2023-02-01T09:03:14;6.43;;;3.42;;
52956;SDS011;38819;42.692;23.342;2023-02-01T09:05:40;11.75;;;4.60;;
52956;SDS011;38819;42.692;23.342;2023-02-01T09:08:05;10.10;;;3.90;;
52956;SDS011;38819;42.692;23.342;2023-02-01T09:10:31;9.82;;;3.63;;
52956;SDS011;38819;42.692;23.342;2023-02-01T09:12:56;14.10;;;5.22;;
52956;SDS011;38819;42.692;23.342;2023-02-01T09:15:22;13.02;;;3.72;;
52956;SDS011;38819;42.692;23.342;2023-02-01T09:17:47;5.85;;;3.15;;
52956;SDS011;38819;42.692;23.342;2023-02-01T09:20:14;10.38;;;3.17;;
52956;SDS011;38819;42.692;23.342;2023-02-01T09:22:39;4.90;;;2.60;;
52956;SDS011;38819;42.692;23.342;2023-02-01T09:25:05;5.10;;;2.50;;
52956;SDS011;38819;42.692;23.342;2023-02-01T09:27:32;3.97;;;2.22;;
52956;SDS011;38819;42.692;23.342;2023-02-01T09:29:57;4.22;;;2.38;;
52956;SDS011;38819;42.692;23.342;2023-02-01T09:32:23;3.40;;;2.72;;
52956;SDS011;38819;42.692;23.342;2023-02-01T09:34:49;6.00;;;2.95;;
52956;SDS011;38819;42.692;23.342;2023-02-01T09:37:15;9.23;;;3.03;;
52956;SDS011;38819;42.692;23.342;2023-02-01T09:39:40;10.05;;;2.88;;
52956;SDS011;38819;42.692;23.342;2023-02-01T09:44:51;8.45;;;3.08;;
52956;SDS011;38819;42.692;23.342;2023-02-01T09:47:29;9.02;;;3.00;;
52956;SDS011;38819;42.692;23.342;2023-02-01T09:52:34;6.45;;;2.47;;
52956;SDS011;38819;42.692;23.342;2023-02-01T09:55:13;8.15;;;2.47;;
52956;SDS011;38819;42.692;23.342;2023-02-01T09:58:01;6.75;;;2.60;;
52956;SDS011;38819;42.692;23.342;2023-02-01T10:00:35;6.32;;;2.83;;
52956;SDS011;38819;42.692;23.342;2023-02-01T10:03:03;10.40;;;3.03;;
52956;SDS011;38819;42.692;23.342;2023-02-01T10:05:45;8.88;;;3.13;;
52956;SDS011;38819;42.692;23.342;2023-02-01T10:10:55;5.70;;;2.70;;
52956;SDS011;38819;42.692;23.342;2023-02-01T10:16:24;9.00;;;3.50;;
52956;SDS011;38819;42.692;23.342;2023-02-01T10:22:00;4.68;;;2.70;;
52956;SDS011;38819;42.692;23.342;2023-02-01T10:24:37;8.10;;;3.17;;
52956;SDS011;38819;42.692;23.342;2023-02-01T10:27:14;6.15;;;3.20;;
52956;SDS011;38819;42.692;23.342;2023-02-01T10:29:43;8.63;;;3.70;;
52956;SDS011;38819;42.692;23.342;2023-02-01T10:32:20;4.32;;;2.80;;
52956;SDS011;38819;42.692;23.342;2023-02-01T10:34:52;9.15;;;3.53;;
52956;SDS011;38819;42.692;23.342;2023-02-01T10:37:33;4.55;;;2.88;;
52956;SDS011;38819;42.692;23.342;2023-02-01T10:40:21;8.17;;;2.87;;
52956;SDS011;38819;42.692;23.342;2023-02-01T10:42:49;8.75;;;3.20;;
52956;SDS011;38819;42.692;23.342;2023-02-01T10:45:17;6.05;;;3.65;;
52956;SDS011;38819;42.692;23.342;2023-02-01T10:47:45;4.53;;;2.95;;
52956;SDS011;38819;42.692;23.342;2023-02-01T10:58:18;5.43;;;2.55;;
52956;SDS011;38819;42.692;23.342;2023-02-01T11:00:52;6.45;;;2.80;;
52956;SDS011;38819;42.692;23.342;2023-02-01T11:06:02;4.35;;;3.10;;
52956;SDS011;38819;42.692;23.342;2023-02-01T11:08:41;7.22;;;3.30;;
52956;SDS011;38819;42.692;23.342;2023-02-01T11:11:11;6.18;;;2.90;;
52956;SDS011;38819;42.692;23.342;2023-02-01T11:13:38;8.10;;;3.33;;
52956;SDS011;38819;42.692;23.342;2023-02-01T11:16:05;6.57;;;2.80;;
52956;SDS011;38819;42.692;23.342;2023-02-01T11:18:33;6.83;;;3.03;;
52956;SDS011;38819;42.692;23.342;2023-02-01T11:21:01;4.70;;;2.47;;
52956;SDS011;38819;42.692;23.342;2023-02-01T11:23:29;4.25;;;2.55;;
52956;SDS011;38819;42.692;23.342;2023-02-01T11:26:07;5.20;;;2.03;;
52956;SDS011;38819;42.692;23.342;2023-02-01T11:28:37;2.20;;;2.00;;
52956;SDS011;38819;42.692;23.342;2023-02-01T11:31:06;3.30;;;2.15;;
52956;SDS011;38819;42.692;23.342;2023-02-01T11:33:35;3.88;;;2.40;;
52956;SDS011;38819;42.692;23.342;2023-02-01T11:36:10;4.25;;;2.70;;
52956;SDS011;38819;42.692;23.342;2023-02-01T11:38:40;7.05;;;3.78;;
52956;SDS011;38819;42.692;23.342;2023-02-01T11:41:23;6.82;;;2.42;;
52956;SDS011;38819;42.692;23.342;2023-02-01T11:44:00;4.65;;;2.33;;
52956;SDS011;38819;42.692;23.342;2023-02-01T11:46:40;5.35;;;2.60;;
52956;SDS011;38819;42.692;23.342;2023-02-01T11:49:27;3.45;;;2.40;;
52956;SDS011;38819;42.692;23.342;2023-02-01T11:57:41;5.15;;;2.53;;
52956;SDS011;38819;42.692;23.342;2023-02-01T12:16:28;2.60;;;1.90;;
52956;SDS011;38819;42.692;23.342;2023-02-01T12:30:08;3.65;;;2.33;;
52956;SDS011;38819;42.692;23.342;2023-02-01T12:38:06;2.67;;;2.00;;
52956;SDS011;38819;42.692;23.342;2023-02-01T12:46:17;4.10;;;1.75;;
52956;SDS011;38819;42.692;23.342;2023-02-01T12:51:36;2.00;;;1.67;;
52956;SDS011;38819;42.692;23.342;2023-02-01T12:54:15;2.75;;;2.47;;
52956;SDS011;38819;42.692;23.342;2023-02-01T12:56:55;5.45;;;2.03;;
52956;SDS011;38819;42.692;23.342;2023-02-01T12:59:28;3.60;;;1.90;;
52956;SDS011;38819;42.692;23.342;2023-02-01T13:07:45;2.42;;;2.00;;
52956;SDS011;38819;42.692;23.342;2023-02-01T13:13:16;2.80;;;2.03;;
52956;SDS011;38819;42.692;23.342;2023-02-01T13:16:01;2.47;;;2.00;;
52956;SDS011;38819;42.692;23.342;2023-02-01T13:18:49;5.03;;;2.55;;
52956;SDS011;38819;42.692;23.342;2023-02-01T13:21:19;5.15;;;2.65;;
52956;SDS011;38819;42.692;23.342;2023-02-01T13:23:50;3.90;;;2.13;;
52956;SDS011;38819;42.692;23.342;2023-02-01T13:26:17;6.20;;;2.00;;
52956;SDS011;38819;42.692;23.342;2023-02-01T13:28:47;3.85;;;1.92;;
52956;SDS011;38819;42.692;23.342;2023-02-01T13:32:26;3.10;;;1.80;;
52956;SDS011;38819;42.692;23.342;2023-02-01T13:43:02;2.85;;;2.15;;
52956;SDS011;38819;42.692;23.342;2023-02-01T13:45:34;2.22;;;2.00;;
52956;SDS011;38819;42.692;23.342;2023-02-01T13:48:03;3.83;;;2.38;;
52956;SDS011;38819;42.692;23.342;2023-02-01T13:55:40;6.82;;;2.50;;
52956;SDS011;38819;42.692;23.342;2023-02-01T13:58:15;4.07;;;2.20;;
52956;SDS011;38819;42.692;23.342;2023-02-01T14:00:45;3.90;;;2.10;;
52956;SDS011;38819;42.692;23.342;2023-02-01T14:03:15;2.53;;;2.30;;
52956;SDS011;38819;42.692;23.342;2023-02-01T14:08:21;4.78;;;2.35;;
52956;SDS011;38819;42.692;23.342;2023-02-01T14:10:53;3.53;;;2.08;;
52956;SDS011;38819;42.692;23.342;2023-02-01T14:13:28;8.25;;;3.15;;
52956;SDS011;38819;42.692;23.342;2023-02-01T14:23:47;5.00;;;2.33;;
52956;SDS011;38819;42.692;23.342;2023-02-01T14:26:25;3.38;;;2.50;;
52956;SDS011;38819;42.692;23.342;2023-02-01T14:28:59;2.13;;;1.75;;
52956;SDS011;38819;42.692;23.342;2023-02-01T14:33:58;6.75;;;2.50;;
52956;SDS011;38819;42.692;23.342;2023-02-01T14:36:26;10.60;;;2.88;;
52956;SDS011;38819;42.692;23.342;2023-02-01T14:41:32;6.43;;;2.30;;
52956;SDS011;38819;42.692;23.342;2023-02-01T14:52:45;5.72;;;3.13;;
52956;SDS011;38819;42.692;23.342;2023-02-01T14:55:13;3.05;;;2.45;;
52956;SDS011;38819;42.692;23.342;2023-02-01T14:57:43;3.83;;;2.70;;
52956;SDS011;38819;42.692;23.342;2023-02-01T15:00:18;4.30;;;2.80;;
52956;SDS011;38819;42.692;23.342;2023-02-01T15:02:47;7.80;;;3.40;;
52956;SDS011;38819;42.692;23.342;2023-02-01T15:08:16;6.43;;;3.10;;
52956;SDS011;38819;42.692;23.342;2023-02-01T15:10:45;5.95;;;3.45;;
52956;SDS011;38819;42.692;23.342;2023-02-01T15:13:20;4.28;;;3.13;;
52956;SDS011;38819;42.692;23.342;2023-02-01T15:16:10;4.57;;;3.15;;
52956;SDS011;38819;42.692;23.342;2023-02-01T15:18:37;12.05;;;4.20;;
52956;SDS011;38819;42.692;23.342;2023-02-01T15:21:04;6.10;;;3.77;;
52956;SDS011;38819;42.692;23.342;2023-02-01T15:23:31;7.97;;;3.92;;
52956;SDS011;38819;42.692;23.342;2023-02-01T15:25:58;9.77;;;4.13;;
52956;SDS011;38819;42.692;23.342;2023-02-01T15:28:24;6.65;;;4.00;;
52956;SDS011;38819;42.692;23.342;2023-02-01T15:30:52;4.07;;;2.90;;
52956;SDS011;38819;42.692;23.342;2023-02-01T15:33:25;7.20;;;3.63;;
52956;SDS011;38819;42.692;23.342;2023-02-01T15:35:53;3.15;;;2.67;;
52956;SDS011;38819;42.692;23.342;2023-02-01T15:38:39;7.47;;;4.07;;
52956;SDS011;38819;42.692;23.342;2023-02-01T15:41:19;9.32;;;4.18;;
52956;SDS011;38819;42.692;23.342;2023-02-01T15:46:24;6.97;;;3.75;;
52956;SDS011;38819;42.692;23.342;2023-02-01T15:48:57;8.50;;;4.45;;
52956;SDS011;38819;42.692;23.342;2023-02-01T15:51:26;7.93;;;4.47;;
52956;SDS011;38819;42.692;23.342;2023-02-01T15:56:34;14.23;;;5.97;;
52956;SDS011;38819;42.692;23.342;2023-02-01T15:59:03;6.97;;;4.50;;
52956;SDS011;38819;42.692;23.342;2023-02-01T16:01:35;8.77;;;3.80;;
52956;SDS011;38819;42.692;23.342;2023-02-01T16:04:13;6.38;;;3.47;;
52956;SDS011;38819;42.692;23.342;2023-02-01T16:06:53;8.90;;;3.80;;
52956;SDS011;38819;42.692;23.342;2023-02-01T16:09:21;6.93;;;3.80;;
52956;SDS011;38819;42.692;23.342;2023-02-01T16:14:24;7.95;;;4.13;;
52956;SDS011;38819;42.692;23.342;2023-02-01T16:16:51;5.97;;;3.97;;
52956;SDS011;38819;42.692;23.342;2023-02-01T16:19:17;5.43;;;3.30;;
52956;SDS011;38819;42.692;23.342;2023-02-01T16:21:43;5.82;;;3.72;;
52956;SDS011;38819;42.692;23.342;2023-02-01T16:24:08;8.43;;;3.90;;
52956;SDS011;38819;42.692;23.342;2023-02-01T16:26:34;5.50;;;4.22;;
52956;SDS011;38819;42.692;23.342;2023-02-01T16:29:00;7.00;;;3.92;;
52956;SDS011;38819;42.692;23.342;2023-02-01T16:31:31;6.28;;;3.95;;
52956;SDS011;38819;42.692;23.342;2023-02-01T16:33:59;7.30;;;4.25;;
52956;SDS011;38819;42.692;23.342;2023-02-01T16:36:25;7.32;;;4.05;;
52956;SDS011;38819;42.692;23.342;2023-02-01T16:38:52;8.23;;;3.97;;
52956;SDS011;38819;42.692;23.342;2023-02-01T16:41:19;4.78;;;3.80;;
52956;SDS011;38819;42.692;23.342;2023-02-01T16:43:49;6.97;;;3.42;;
52956;SDS011;38819;42.692;23.342;2023-02-01T16:46:16;7.13;;;3.67;;
52956;SDS011;38819;42.692;23.342;2023-02-01T16:48:47;8.15;;;3.55;;
52956;SDS011;38819;42.692;23.342;2023-02-01T16:51:16;6.00;;;3.00;;
52956;SDS011;38819;42.692;23.342;2023-02-01T16:53:43;5.72;;;3.10;;
52956;SDS011;38819;42.692;23.342;2023-02-01T16:56:12;5.53;;;2.95;;
52956;SDS011;38819;42.692;23.342;2023-02-01T16:58:39;8.60;;;3.30;;
52956;SDS011;38819;42.692;23.342;2023-02-01T17:01:07;6.72;;;3.50;;
52956;SDS011;38819;42.692;23.342;2023-02-01T17:03:34;4.47;;;3.08;;
52956;SDS011;38819;42.692;23.342;2023-02-01T17:05:59;8.00;;;3.58;;
52956;SDS011;38819;42.692;23.342;2023-02-01T17:08:29;6.40;;;3.22;;
52956;SDS011;38819;42.692;23.342;2023-02-01T17:10:57;5.07;;;3.75;;
52956;SDS011;38819;42.692;23.342;2023-02-01T17:13:23;10.05;;;4.55;;
52956;SDS011;38819;42.692;23.342;2023-02-01T17:15:56;7.07;;;3.92;;
52956;SDS011;38819;42.692;23.342;2023-02-01T17:18:42;8.85;;;4.22;;
52956;SDS011;38819;42.692;23.342;2023-02-01T17:21:08;14.38;;;4.53;;
52956;SDS011;38819;42.692;23.342;2023-02-01T17:23:35;9.53;;;4.97;;
52956;SDS011;38819;42.692;23.342;2023-02-01T17:26:01;11.00;;;5.13;;
52956;SDS011;38819;42.692;23.342;2023-02-01T17:28:27;13.07;;;5.40;;
52956;SDS011;38819;42.692;23.342;2023-02-01T17:30:53;11.40;;;5.03;;